Time;durP1;ratioP1;P1;durP2;ratioP2;P2;SDS_P1;SDS_P2;PMS_P1;PMS_P2;Temp;Humidity;BMP_temperature;BMP_pressure;BME280_temperature;BME280_humidity;BME280_pressure;Samples;Min_cycle;Max_cycle;Signal;HPM_P1;HPM_P2
2023/05/30 00:01:35;;;;;;;1999.90;999.90;;;;;;;14.85;100.00;95419.81;5048057;28;20224;-54
2023/05/30 00:04:00;;;;;;;1999.90;999.90;;;;;;;14.81;100.00;95424.63;5064123;28;20198;-56
2023/05/30 00:06:26;;;;;;;1999.90;999.90;;;;;;;14.77;100.00;95424.72;5063974;28;20267;-54
2023/05/30 00:08:52;;;;;;;1999.90;999.90;;;;;;;14.76;100.00;95425.94;5047553;28;20189;-55
2023/05/30 00:11:18;;;;;;;1999.90;999.90;;;;;;;14.72;100.00;95422.47;5064002;28;20264;-55
2023/05/30 00:13:43;;;;;;;1999.90;999.90;;;;;;;14.68;100.00;95427.28;5063953;28;20193;-57
2023/05/30 00:16:10;;;;;;;1999.90;999.90;;;;;;;14.69;100.00;95415.09;5063742;28;20174;-58
2023/05/30 00:18:39;;;;;;;1999.90;999.90;;;;;;;14.64;100.00;95418.34;5064541;28;20237;-57
2023/05/30 00:21:06;;;;;;;1999.90;999.90;;;;;;;14.61;100.00;95421.19;5064757;28;20189;-56
2023/05/30 00:23:33;;;;;;;1999.90;999.90;;;;;;;14.58;100.00;95420.09;5047185;28;20189;-56
2023/05/30 00:25:59;;;;;;;1999.90;999.90;;;;;;;14.52;100.00;95421.00;5063842;28;20272;-56
2023/05/30 00:28:25;;;;;;;1999.90;999.90;;;;;;;14.43;100.00;95427.09;5063806;28;20200;-55
2023/05/30 00:30:52;;;;;;;1999.90;999.90;;;;;;;14.41;100.00;95420.47;5063942;28;20209;-56
2023/05/30 00:33:17;;;;;;;1999.90;999.90;;;;;;;14.39;100.00;95426.38;5063613;28;20232;-58
2023/05/30 00:35:43;;;;;;;1999.90;999.90;;;;;;;14.36;100.00;95415.50;5047123;28;20194;-56
2023/05/30 00:38:08;;;;;;;1999.90;999.90;;;;;;;14.28;100.00;95420.34;5064231;28;20265;-58
2023/05/30 00:40:33;;;;;;;1999.90;999.90;;;;;;;14.23;100.00;95420.88;5064069;28;20192;-57
2023/05/30 00:42:59;;;;;;;1999.90;999.90;;;;;;;14.18;100.00;95415.06;5063581;28;20204;-57
2023/05/30 00:45:25;;;;;;;1999.90;999.90;;;;;;;14.13;100.00;95410.09;5063498;28;20170;-58
2023/05/30 00:47:53;;;;;;;1999.90;999.90;;;;;;;14.11;100.00;95410.50;5063963;28;20223;-57
2023/05/30 00:50:19;;;;;;;1999.90;999.90;;;;;;;14.06;100.00;95407.50;5047139;28;20197;-58
2023/05/30 00:52:49;;;;;;;1999.90;999.90;;;;;;;14.02;100.00;95407.56;5046872;28;20205;-56
2023/05/30 00:55:16;;;;;;;1999.90;999.90;;;;;;;13.95;100.00;95407.69;5063382;28;20232;-57
2023/05/30 00:57:42;;;;;;;1999.90;999.90;;;;;;;13.93;100.00;95410.13;5063381;28;20201;-57
2023/05/30 01:00:10;;;;;;;1999.90;999.90;;;;;;;13.97;100.00;95415.50;5046793;28;20194;-56
2023/05/30 01:02:36;;;;;;;1999.90;999.90;;;;;;;13.98;100.00;95419.84;5063463;28;20205;-58
2023/05/30 01:05:02;;;;;;;1999.90;999.90;;;;;;;13.94;100.00;95419.09;5063288;28;20231;-56
2023/05/30 01:07:28;;;;;;;1999.90;999.90;;;;;;;13.91;100.00;95412.50;5046559;28;20237;-56
2023/05/30 01:09:56;;;;;;;1999.90;999.90;;;;;;;13.88;100.00;95424.31;5046411;28;20212;-57
2023/05/30 01:12:51;;;;;;;1999.90;999.90;;;;;;;13.84;100.00;95417.38;5063693;28;20202;-58
2023/05/30 01:15:26;;;;;;;1999.90;999.90;;;;;;;13.85;100.00;95414.22;5063635;28;20209;-58
2023/05/30 01:17:57;;;;;;;1999.90;999.90;;;;;;;13.87;100.00;95414.53;5063548;28;20201;-57
2023/05/30 01:20:25;;;;;;;1999.90;999.90;;;;;;;13.89;100.00;95420.41;5063172;28;20237;-57
2023/05/30 01:23:14;;;;;;;1999.90;999.90;;;;;;;13.90;100.00;95410.97;5063250;28;20213;-57
2023/05/30 01:25:52;;;;;;;1999.90;999.90;;;;;;;13.88;100.00;95413.34;5046568;28;20205;-58
2023/05/30 01:28:21;;;;;;;1999.90;999.90;;;;;;;13.88;100.00;95413.34;5049713;28;20177;-58
2023/05/30 01:30:49;;;;;;;1999.90;999.90;;;;;;;13.89;100.00;95414.91;5067058;28;20240;-57
2023/05/30 01:33:17;;;;;;;1999.90;999.90;;;;;;;13.91;100.00;95417.97;5067100;28;20197;-58
2023/05/30 01:35:46;;;;;;;1999.90;999.90;;;;;;;13.94;100.00;95422.63;5067021;28;20201;-57
2023/05/30 01:38:12;;;;;;;1999.90;999.90;;;;;;;13.95;100.00;95418.69;5066876;28;20209;-58
2023/05/30 01:40:39;;;;;;;1999.90;999.90;;;;;;;13.92;100.00;95414.06;5066987;28;20267;-57
2023/05/30 01:43:26;;;;;;;1999.90;999.90;;;;;;;13.90;100.00;95416.44;5050291;28;20197;-57
2023/05/30 01:46:28;;;;;;;1999.90;999.90;;;;;;;13.93;100.00;95420.31;5050152;28;20217;-57
2023/05/30 01:49:12;;;;;;;1999.90;999.90;;;;;;;13.86;100.00;95420.44;5050095;28;20196;-56
2023/05/30 01:51:52;;;;;;;1999.90;999.90;;;;;;;13.92;100.00;95430.53;5067192;28;20194;-56
2023/05/30 01:54:19;;;;;;;1999.90;999.90;;;;;;;13.95;100.00;95429.66;5066846;28;20268;-57
2023/05/30 01:56:48;;;;;;;1999.90;999.90;;;;;;;14.01;100.00;95433.47;5049920;28;20198;-56
2023/05/30 01:59:15;;;;;;;1999.90;999.90;;;;;;;13.97;100.00;95435.53;5066235;28;20205;-58
2023/05/30 02:01:41;;;;;;;1999.90;999.90;;;;;;;14.10;100.00;95447.41;5066745;28;20198;-56
2023/05/30 02:04:07;;;;;;;1999.90;999.90;;;;;;;14.18;100.00;95437.84;5066371;28;20214;-58
2023/05/30 02:06:32;;;;;;;1999.90;999.90;;;;;;;14.27;100.00;95446.28;5049947;28;20216;-57
2023/05/30 02:08:58;;;;;;;1999.90;999.90;;;;;;;14.25;100.00;95448.69;5066908;28;20205;-56
2023/05/30 02:11:23;;;;;;;1999.90;999.90;;;;;;;14.29;100.00;95449.41;5050413;28;20206;-57
2023/05/30 02:13:48;;;;;;;1999.90;999.90;;;;;;;14.32;100.00;95443.06;5049674;28;20225;-56
2023/05/30 02:16:15;;;;;;;1999.90;999.90;;;;;;;14.36;100.00;95440.22;5066305;28;20269;-56
2023/05/30 02:18:41;;;;;;;1999.90;999.90;;;;;;;14.38;100.00;95441.34;5066626;28;20220;-56
2023/05/30 02:21:07;;;;;;;1999.90;999.90;;;;;;;14.39;100.00;95445.63;5049661;28;20228;-57
2023/05/30 02:23:33;;;;;;;1999.90;999.90;;;;;;;14.38;100.00;95446.81;5066109;28;20229;-56
2023/05/30 02:25:58;;;;;;;1999.90;999.90;;;;;;;14.36;100.00;95449.25;5066546;28;20194;-57
2023/05/30 02:28:24;;;;;;;1999.90;999.90;;;;;;;14.34;100.00;95451.63;5066254;28;20194;-57
2023/05/30 02:30:49;;;;;;;1999.90;999.90;;;;;;;14.31;100.00;95446.97;5066137;28;20194;-56
2023/05/30 02:33:14;;;;;;;1999.90;999.90;;;;;;;14.34;100.00;95448.88;5065957;28;20229;-57
2023/05/30 02:35:40;;;;;;;1999.90;999.90;;;;;;;14.25;100.00;95454.19;5065817;28;20204;-57
2023/05/30 02:38:05;;;;;;;1999.90;999.90;;;;;;;14.28;100.00;95455.31;5065469;28;20217;-57
2023/05/30 02:40:30;;;;;;;1999.90;999.90;;;;;;;14.35;100.00;95450.41;5065520;28;20193;-57
2023/05/30 02:42:56;;;;;;;1999.90;999.90;;;;;;;14.36;100.00;95448.47;5066060;28;20201;-57
2023/05/30 02:45:22;;;;;;;1999.90;999.90;;;;;;;14.34;100.00;95457.13;5065701;28;20197;-56
2023/05/30 02:47:47;;;;;;;1999.90;999.90;;;;;;;14.34;100.00;95457.13;5065649;28;20221;-57
2023/05/30 02:50:12;;;;;;;1999.90;999.90;;;;;;;14.28;100.00;95458.81;5065881;28;20204;-58
2023/05/30 02:52:38;;;;;;;1999.90;999.90;;;;;;;14.19;100.00;95453.09;5065527;28;20198;-57
2023/05/30 02:55:04;;;;;;;1999.90;999.90;;;;;;;14.18;100.00;95459.81;5049125;28;20197;-57
2023/05/30 02:57:30;;;;;;;1999.90;999.90;;;;;;;14.23;100.00;95458.53;5049221;28;20201;-57
2023/05/30 02:59:56;;;;;;;1999.90;999.90;;;;;;;14.24;100.00;95455.38;5065561;28;20224;-57
2023/05/30 03:02:21;;;;;;;1999.90;999.90;;;;;;;14.24;100.00;95451.88;5065844;28;20216;-58
2023/05/30 03:04:46;;;;;;;1999.90;999.90;;;;;;;14.22;100.00;95455.03;5048891;28;20205;-58
2023/05/30 03:07:13;;;;;;;1999.90;999.90;;;;;;;14.16;100.00;95453.19;5065124;28;20209;-58
2023/05/30 03:09:40;;;;;;;1999.90;999.90;;;;;;;14.13;100.00;95452.03;5065491;28;20278;-58
2023/05/30 03:12:06;;;;;;;1999.90;999.90;;;;;;;14.12;100.00;95453.25;5065758;28;20261;-57
2023/05/30 03:14:32;;;;;;;1999.90;999.90;;;;;;;14.09;100.00;95451.34;5048923;28;20277;-57
2023/05/30 03:16:57;;;;;;;1999.90;999.90;;;;;;;14.08;100.00;95460.00;5048839;28;20202;-57
2023/05/30 03:19:22;;;;;;;1999.90;999.90;;;;;;;13.99;100.00;95457.81;5048477;28;20202;-58
2023/05/30 03:21:49;;;;;;;1999.90;999.90;;;;;;;14.02;100.00;95456.97;5048318;28;20194;-57
2023/05/30 03:24:15;;;;;;;1999.90;999.90;;;;;;;13.95;100.00;95456.38;5048435;28;20223;-58
2023/05/30 03:26:40;;;;;;;1999.90;999.90;;;;;;;13.94;100.00;95466.56;5048239;28;20277;-58
2023/05/30 03:29:07;;;;;;;1999.90;999.90;;;;;;;13.96;100.00;95458.69;5064924;28;20294;-57
2023/05/30 03:31:33;;;;;;;1999.90;999.90;;;;;;;13.95;100.00;95467.34;5065009;28;20201;-58
2023/05/30 03:33:59;;;;;;;1999.90;999.90;;;;;;;13.99;100.00;95468.81;5048417;28;20225;-57
2023/05/30 03:36:25;;;;;;;1999.90;999.90;;;;;;;13.97;100.00;95465.72;5048477;28;20239;-58
2023/05/30 03:38:51;;;;;;;1999.90;999.90;;;;;;;13.98;100.00;95467.25;5048452;28;20182;-58
2023/05/30 03:41:16;;;;;;;1999.90;999.90;;;;;;;14.02;100.00;95462.47;5048382;28;20240;-58
2023/05/30 03:43:42;;;;;;;1999.90;999.90;;;;;;;14.00;100.00;95459.41;5048395;28;20205;-58
2023/05/30 03:46:07;;;;;;;1999.90;999.90;;;;;;;14.04;100.00;95465.59;5064421;28;20219;-57
2023/05/30 03:48:32;;;;;;;1999.90;999.90;;;;;;;14.08;100.00;95466.28;5064330;28;20197;-57
2023/05/30 03:50:58;;;;;;;1999.90;999.90;;;;;;;14.05;100.00;95464.38;5064087;28;20201;-57
2023/05/30 03:53:23;;;;;;;1999.90;999.90;;;;;;;14.14;100.00;95464.59;5064498;28;20204;-58
2023/05/30 03:55:48;;;;;;;1999.90;999.90;;;;;;;14.15;100.00;95459.84;5064425;28;20201;-57
2023/05/30 03:58:14;;;;;;;1999.90;999.90;;;;;;;14.21;100.00;95458.97;5064886;28;20198;-55
2023/05/30 04:00:39;;;;;;;1999.90;999.90;;;;;;;14.23;100.00;95461.28;5064418;28;20256;-57
2023/05/30 04:03:05;;;;;;;1999.90;999.90;;;;;;;14.26;100.00;95461.22;5064234;28;20202;-57
2023/05/30 04:05:30;;;;;;;1999.90;999.90;;;;;;;14.26;100.00;95472.22;5047555;28;20265;-57
2023/05/30 04:07:56;;;;;;;1999.90;999.90;;;;;;;14.30;100.00;95469.38;5064227;28;20213;-58
2023/05/30 04:10:22;;;;;;;1999.90;999.90;;;;;;;14.34;100.00;95468.13;5047892;28;20182;-58
2023/05/30 04:12:48;;;;;;;1999.90;999.90;;;;;;;14.39;100.00;95469.59;5047547;28;20198;-58
2023/05/30 04:15:13;;;;;;;1999.90;999.90;;;;;;;14.44;100.00;95467.13;5064156;28;20224;-58
2023/05/30 04:17:40;;;;;;;1999.90;999.90;;;;;;;14.49;100.00;95468.59;5047435;28;20478;-57
2023/05/30 04:20:09;;;;;;;1999.90;999.90;;;;;;;14.52;100.00;95474.00;5047374;28;20205;-57
2023/05/30 04:22:35;;;;;;;1999.90;999.90;;;;;;;14.46;100.00;95475.69;5064249;28;20197;-58
2023/05/30 04:25:01;;;;;;;1999.90;999.90;;;;;;;14.58;100.00;95472.31;5063842;28;20265;-57
2023/05/30 04:27:26;;;;;;;1999.90;999.90;;;;;;;14.58;100.00;95485.25;5047275;28;20213;-58
2023/05/30 04:29:53;;;;;;;1999.90;999.90;;;;;;;14.63;100.00;95484.75;5047229;28;20260;-57
2023/05/30 04:32:19;;;;;;;1999.90;999.90;;;;;;;14.76;100.00;95489.19;5047304;28;20197;-58
2023/05/30 04:34:45;;;;;;;1999.90;999.90;;;;;;;14.78;100.00;95491.47;5047664;28;20264;-57
2023/05/30 04:37:11;;;;;;;1999.90;999.90;;;;;;;14.81;100.00;95491.41;5047018;28;20202;-58
2023/05/30 04:39:37;;;;;;;1999.90;999.90;;;;;;;14.80;100.00;95489.88;5047456;28;20177;-57
2023/05/30 04:42:04;;;;;;;1999.90;999.90;;;;;;;14.96;100.00;95492.63;5046947;28;20272;-58
2023/05/30 04:44:37;;;;;;;1999.90;999.90;;;;;;;14.88;100.00;95496.75;5064138;28;20269;-58
2023/05/30 04:47:05;;;;;;;1999.90;999.90;;;;;;;14.91;100.00;95501.41;5063819;28;20279;-58
2023/05/30 04:49:30;;;;;;;1999.90;999.90;;;;;;;15.04;100.00;95499.50;5063666;28;20201;-58
2023/05/30 04:51:56;;;;;;;1999.90;999.90;;;;;;;15.20;100.00;95509.75;5047185;28;20205;-58
2023/05/30 04:54:22;;;;;;;1999.90;999.90;;;;;;;15.21;100.00;95514.81;5047252;28;20197;-58
2023/05/30 04:56:47;;;;;;;1999.90;999.90;;;;;;;15.14;100.00;95509.47;5063636;28;20201;-58
2023/05/30 04:59:12;;;;;;;1999.90;999.90;;;;;;;15.35;100.00;95503.50;5063421;28;20194;-56
2023/05/30 05:01:38;;;;;;;1999.90;999.90;;;;;;;15.36;100.00;95501.50;5063788;28;20194;-58
2023/05/30 05:04:04;;;;;;;1999.90;999.90;;;;;;;15.22;100.00;95507.31;5050688;28;20202;-58
2023/05/30 05:06:30;;;;;;;1999.90;999.90;;;;;;;15.56;100.00;95513.19;5050911;28;20256;-58
2023/05/30 05:08:55;;;;;;;1999.90;999.90;;;;;;;15.57;100.00;95504.50;5068168;28;20251;-58
2023/05/30 05:11:21;;;;;;;1999.90;999.90;;;;;;;15.74;100.00;95508.75;5067874;28;20208;-58
2023/05/30 05:13:47;;;;;;;1999.90;999.90;;;;;;;15.77;100.00;95507.91;5067954;28;20201;-57
2023/05/30 05:16:12;;;;;;;1999.90;999.90;;;;;;;16.15;100.00;95506.09;5050853;28;20193;-57
2023/05/30 05:18:37;;;;;;;1999.90;999.90;;;;;;;16.81;100.00;95507.34;5067563;28;20204;-58
2023/05/30 05:21:03;;;;;;;1999.90;999.90;;;;;;;17.36;100.00;95506.75;5050485;28;20197;-57
2023/05/30 05:23:29;;;;;;;1999.90;999.90;;;;;;;17.77;100.00;95499.09;5067312;28;20232;-57
2023/05/30 05:25:55;;;;;;;1999.90;999.90;;;;;;;17.92;100.00;95510.44;5050563;28;20217;-57
2023/05/30 05:28:21;;;;;;;1999.90;999.90;;;;;;;18.57;100.00;95511.25;5067420;28;20188;-57
2023/05/30 05:30:48;;;;;;;1999.90;999.90;;;;;;;19.42;100.00;95520.63;5067084;28;20221;-57
2023/05/30 05:33:15;;;;;;;1999.90;999.90;;;;;;;19.19;100.00;95521.88;5067585;28;20190;-57
2023/05/30 05:35:40;;;;;;;1999.90;999.90;;;;;;;19.88;100.00;95521.50;5050394;28;20225;-58
2023/05/30 05:38:06;;;;;;;1999.90;999.90;;;;;;;20.59;100.00;95520.75;5067463;28;20170;-56
2023/05/30 05:40:31;;;;;;;1999.90;999.90;;;;;;;20.19;100.00;95519.38;5050606;28;20244;-57
2023/05/30 05:42:57;;;;;;;1999.90;999.90;;;;;;;20.81;100.00;95521.31;5066744;28;20217;-55
2023/05/30 05:45:22;;;;;;;1999.90;999.90;;;;;;;20.75;100.00;95522.41;5066903;28;20238;-56
2023/05/30 05:47:47;;;;;;;1999.90;999.90;;;;;;;20.69;100.00;95524.28;5066930;28;20210;-56
2023/05/30 05:50:13;;;;;;;1999.90;999.90;;;;;;;20.09;100.00;95526.88;5066596;28;20213;-57
2023/05/30 05:52:38;;;;;;;1999.90;999.90;;;;;;;20.95;100.00;95531.03;5066318;28;20193;-56
2023/05/30 05:55:04;;;;;;;1999.90;999.90;;;;;;;21.34;100.00;95529.97;5066804;28;20200;-57
2023/05/30 05:57:29;;;;;;;1999.90;999.90;;;;;;;21.03;99.66;95530.25;5049732;28;20194;-57
2023/05/30 05:59:55;;;;;;;1999.90;999.90;;;;;;;21.63;95.49;95525.34;5049812;28;20198;-57
2023/05/30 06:02:20;;;;;;;1999.90;999.90;;;;;;;21.84;89.58;95532.69;5066305;28;20209;-57
2023/05/30 06:04:47;;;;;;;1999.90;999.90;;;;;;;20.36;97.88;95535.25;5066390;28;20205;-55
2023/05/30 06:07:13;;;;;;;1999.90;999.90;;;;;;;20.25;100.00;95540.47;5066092;28;20244;-57
2023/05/30 06:09:38;;;;;;;1999.90;999.90;;;;;;;21.12;100.00;95538.53;5066469;28;20178;-57
2023/05/30 06:12:05;;;;;;;1999.90;999.90;;;;;;;21.26;98.57;95537.09;5066490;28;20208;-57
2023/05/30 06:14:30;;;;;;;1999.90;999.90;;;;;;;22.10;86.14;95544.88;5065410;28;20193;-57
2023/05/30 06:16:55;;;;;;;1999.90;999.90;;;;;;;22.18;86.23;95548.81;5066456;28;20202;-57
2023/05/30 06:19:21;;;;;;;1999.90;999.90;;;;;;;22.80;84.70;95548.03;5066394;28;20197;-58
2023/05/30 06:21:46;;;;;;;1999.90;999.90;;;;;;;23.79;77.21;95538.53;5065992;28;20197;-57
2023/05/30 06:24:11;;;;;;;1999.90;999.90;;;;;;;24.50;72.09;95541.53;5049518;28;20190;-58
2023/05/30 06:26:37;;;;;;;1999.90;999.90;;;;;;;24.00;72.76;95548.53;5049681;28;20245;-57
2023/05/30 06:29:02;;;;;;;1999.90;999.90;;;;;;;23.38;77.51;95551.59;5049143;28;20190;-59
2023/05/30 06:31:27;;;;;;;1999.90;999.90;;;;;;;24.32;74.06;95555.78;5065789;28;20202;-58
2023/05/30 06:33:53;;;;;;;1999.90;999.90;;;;;;;24.09;72.87;95562.34;5049636;28;20204;-57
2023/05/30 06:36:18;;;;;;;1999.90;999.90;;;;;;;24.41;73.73;95556.44;5066126;28;20201;-58
2023/05/30 06:38:44;;;;;;;1999.90;999.90;;;;;;;23.83;66.96;95567.00;5049139;28;20232;-55
2023/05/30 06:41:10;;;;;;;1999.90;999.90;;;;;;;22.99;76.16;95554.97;5065922;28;20184;-54
2023/05/30 06:43:35;;;;;;;1999.90;999.90;;;;;;;23.20;77.85;95559.38;5049623;28;20220;-52
2023/05/30 06:46:00;;;;;;;1999.90;999.90;;;;;;;24.35;74.88;95557.59;5065918;28;20197;-52
2023/05/30 06:48:26;;;;;;;1999.90;999.90;;;;;;;23.74;74.11;95564.34;5065685;28;20206;-54
2023/05/30 06:50:51;;;;;;;1999.90;999.90;;;;;;;23.38;74.91;95564.78;5048811;28;20264;-53
2023/05/30 06:53:16;;;;;;;1999.90;999.90;;;;;;;22.76;76.96;95558.59;5065355;28;20272;-53
2023/05/30 06:55:42;;;;;;;1999.90;999.90;;;;;;;23.33;75.95;95563.44;5065377;28;20196;-57
2023/05/30 06:58:07;;;;;;;1999.90;999.90;;;;;;;23.69;72.96;95563.00;5049103;28;20229;-54
2023/05/30 07:00:33;;;;;;;1999.90;999.90;;;;;;;24.13;68.44;95562.91;5048919;28;20189;-59
2023/05/30 07:03:00;;;;;;;1999.90;999.90;;;;;;;24.89;67.27;95567.91;5065237;28;20201;-55
2023/05/30 07:05:26;;;;;;;1999.90;999.90;;;;;;;25.04;63.43;95562.97;5065813;28;20186;-55
2023/05/30 07:07:51;;;;;;;1999.90;999.90;;;;;;;24.82;63.71;95571.91;5048728;28;20205;-56
2023/05/30 07:10:16;;;;;;;1999.90;999.90;;;;;;;24.87;65.60;95573.22;5065245;28;20278;-57
2023/05/30 07:12:41;;;;;;;1999.90;999.90;;;;;;;25.66;60.94;95563.03;5065093;28;20255;-56
2023/05/30 07:15:08;;;;;;;1999.90;999.90;;;;;;;25.42;58.99;95565.38;5065311;28;20194;-55
2023/05/30 07:17:33;;;;;;;1999.90;999.90;;;;;;;26.19;58.70;95565.97;5065299;28;20205;-56
2023/05/30 07:19:59;;;;;;;1999.90;999.90;;;;;;;26.84;54.63;95564.72;5048638;28;20201;-56
2023/05/30 07:22:24;;;;;;;1999.90;999.90;;;;;;;25.62;56.75;95562.50;5064881;28;20324;-58
2023/05/30 07:24:49;;;;;;;1999.90;999.90;;;;;;;26.31;55.81;95569.59;5064337;28;20205;-56
2023/05/30 07:27:15;;;;;;;1999.90;999.90;;;;;;;25.39;55.61;95577.59;5064968;28;20206;-56
2023/05/30 07:29:40;;;;;;;1999.90;999.90;;;;;;;25.41;58.38;95571.50;5048104;28;20228;-57
2023/05/30 07:32:06;;;;;;;1999.90;999.90;;;;;;;26.19;53.65;95565.97;5064635;28;20209;-58
2023/05/30 07:34:31;;;;;;;1999.90;999.90;;;;;;;27.40;52.33;95560.81;5064737;28;20205;-56
2023/05/30 07:36:57;;;;;;;1999.90;999.90;;;;;;;25.61;54.20;95557.41;5064563;28;20225;-57
2023/05/30 07:39:23;;;;;;;1999.90;999.90;;;;;;;26.50;53.63;95562.28;5064518;28;20219;-57
2023/05/30 07:41:48;;;;;;;1999.90;999.90;;;;;;;26.92;53.48;95554.59;5065014;28;20205;-55
2023/05/30 07:44:14;;;;;;;1999.90;999.90;;;;;;;25.11;59.03;95568.91;5048363;28;20198;-56
2023/05/30 07:46:39;;;;;;;1999.90;999.90;;;;;;;24.05;64.87;95556.19;5047483;28;20205;-56
2023/05/30 07:49:05;;;;;;;1999.90;999.90;;;;;;;24.57;63.79;95557.88;5064612;28;20209;-57
2023/05/30 07:51:31;;;;;;;1999.90;999.90;;;;;;;25.21;62.26;95553.47;5064707;28;20198;-56
2023/05/30 07:53:56;;;;;;;1999.90;999.90;;;;;;;26.43;55.98;95557.94;5064659;28;20201;-56
2023/05/30 07:56:22;;;;;;;1999.90;999.90;;;;;;;26.78;57.51;95552.75;5047614;28;20189;-57
2023/05/30 07:58:47;;;;;;;1999.90;999.90;;;;;;;28.38;49.78;95557.63;5047725;28;20219;-56
2023/05/30 08:01:12;;;;;;;1999.90;999.90;;;;;;;28.72;45.58;95556.25;5064293;28;20268;-56
2023/05/30 08:03:38;;;;;;;1999.90;999.90;;;;;;;27.37;49.29;95561.81;5064202;28;20194;-54
2023/05/30 08:06:03;;;;;;;1999.90;999.90;;;;;;;26.50;53.87;95568.66;5064485;28;20220;-55
2023/05/30 08:08:29;;;;;;;1999.90;999.90;;;;;;;25.67;56.72;95564.56;5047539;28;20194;-56
2023/05/30 08:10:54;;;;;;;1999.90;999.90;;;;;;;26.40;55.19;95561.75;5064449;28;20235;-56
2023/05/30 08:13:20;;;;;;;1999.90;999.90;;;;;;;27.22;50.69;95561.28;5064338;28;20200;-57
2023/05/30 08:15:45;;;;;;;1999.90;999.90;;;;;;;26.96;54.47;95557.13;5064064;28;20224;-58
2023/05/30 08:18:11;;;;;;;1999.90;999.90;;;;;;;27.53;52.57;95561.03;5047723;28;20212;-56
2023/05/30 08:20:37;;;;;;;1999.90;999.90;;;;;;;26.97;55.72;95562.22;5063893;28;20204;-57
2023/05/30 08:23:03;;;;;;;1999.90;999.90;;;;;;;27.23;55.02;95557.22;5047616;28;20217;-57
2023/05/30 08:25:35;;;;;;;1999.90;999.90;;;;;;;27.86;52.71;95551.88;5064068;28;20232;-56
2023/05/30 08:28:00;;;;;;;1999.90;999.90;;;;;;;27.72;50.20;95553.63;5064449;28;20210;-55
2023/05/30 08:30:26;;;;;;;1999.90;999.90;;;;;;;28.70;50.57;95556.78;5046941;28;20247;-56
2023/05/30 08:32:51;;;;;;;1999.90;999.90;;;;;;;28.09;51.58;95559.75;5047147;28;20196;-57
2023/05/30 08:35:17;;;;;;;1999.90;999.90;;;;;;;27.44;51.46;95561.31;5063586;28;20194;-56
2023/05/30 08:37:42;;;;;;;1999.90;999.90;;;;;;;27.64;51.21;95565.91;5046131;28;20200;-57
2023/05/30 08:40:12;;;;;;;1999.90;999.90;;;;;;;28.67;50.20;95562.66;5063646;28;20206;-58
2023/05/30 08:42:38;;;;;;;1999.90;999.90;;;;;;;28.73;50.25;95560.59;5064052;28;20204;-57
2023/05/30 08:45:05;;;;;;;1999.90;999.90;;;;;;;29.27;45.50;95564.41;5064114;28;20193;-57
2023/05/30 08:47:31;;;;;;;1999.90;999.90;;;;;;;29.60;47.72;95564.22;5063916;28;20209;-57
2023/05/30 08:50:01;;;;;;;1999.90;999.90;;;;;;;27.77;52.79;95563.34;5063982;28;20204;-58
2023/05/30 08:52:28;;;;;;;1999.90;999.90;;;;;;;28.16;51.59;95559.22;5063091;28;20204;-58
2023/05/30 08:55:14;;;;;;;1999.90;999.90;;;;;;;27.53;54.20;95563.09;5063947;28;20205;-57
2023/05/30 08:57:44;;;;;;;1999.90;999.90;;;;;;;28.03;57.32;95561.81;5046843;28;20284;-57
2023/05/30 09:00:11;;;;;;;1999.90;999.90;;;;;;;28.00;53.59;95565.63;5047203;28;20193;-56
2023/05/30 09:02:37;;;;;;;1999.90;999.90;;;;;;;27.65;52.53;95576.59;5063551;28;20193;-57
2023/05/30 09:05:04;;;;;;;1999.90;999.90;;;;;;;27.50;51.46;95570.47;5063245;28;20197;-56
2023/05/30 09:07:31;;;;;;;1999.90;999.90;;;;;;;28.19;50.11;95566.63;5047066;28;20237;-55
2023/05/30 09:09:57;;;;;;;1999.90;999.90;;;;;;;29.25;47.79;95566.97;5046918;28;20216;-56
2023/05/30 09:12:25;;;;;;;1999.90;999.90;;;;;;;28.13;50.77;95574.31;5063601;28;20194;-56
2023/05/30 09:14:50;;;;;;;1999.90;999.90;;;;;;;27.46;53.01;95569.97;5063765;28;20186;-55
2023/05/30 09:17:17;;;;;;;1999.90;999.90;;;;;;;26.70;57.66;95562.91;5063324;28;20205;-57
2023/05/30 09:19:43;;;;;;;1999.90;999.90;;;;;;;28.69;51.96;95563.66;5063139;28;20186;-57
2023/05/30 09:22:09;;;;;;;1999.90;999.90;;;;;;;27.11;53.34;95568.88;5046612;28;20242;-56
2023/05/30 09:24:55;;;;;;;1999.90;999.90;;;;;;;28.51;52.08;95564.25;5046353;28;20186;-56
2023/05/30 09:27:20;;;;;;;1999.90;999.90;;;;;;;28.03;53.55;95567.44;5063907;28;20284;-60
2023/05/30 09:29:46;;;;;;;1999.90;999.90;;;;;;;28.07;52.08;95573.56;5047093;28;20198;-58
2023/05/30 09:32:11;;;;;;;1999.90;999.90;;;;;;;28.81;51.84;95567.19;5063324;28;20209;-55
2023/05/30 09:34:36;;;;;;;1999.90;999.90;;;;;;;29.28;49.37;95571.56;5046966;28;20190;-56
2023/05/30 09:37:04;;;;;;;1999.90;999.90;;;;;;;28.90;46.92;95566.88;5063348;28;20189;-56
2023/05/30 09:39:29;;;;;;;1999.90;999.90;;;;;;;29.70;46.62;95579.47;5063635;28;20193;-56
2023/05/30 09:41:56;;;;;;;1999.90;999.90;;;;;;;29.11;47.37;95574.50;5047109;28;20185;-56
2023/05/30 09:44:22;;;;;;;1999.90;999.90;;;;;;;28.58;48.25;95571.41;5063038;28;20198;-57
2023/05/30 09:46:54;;;;;;;1999.90;999.90;;;;;;;28.96;47.75;95579.66;5062883;28;20267;-56
2023/05/30 09:49:20;;;;;;;1999.90;999.90;;;;;;;29.30;48.18;95574.63;5066141;28;20226;-56
2023/05/30 09:51:45;;;;;;;1999.90;999.90;;;;;;;30.10;45.25;95568.09;5066894;28;20190;-54
2023/05/30 09:54:13;;;;;;;1999.90;999.90;;;;;;;30.67;43.47;95564.91;5066680;28;20246;-56
2023/05/30 09:56:42;;;;;;;1999.90;999.90;;;;;;;28.62;49.96;95566.28;5067142;28;20193;-55
2023/05/30 09:59:13;;;;;;;1999.90;999.90;;;;;;;29.50;46.91;95565.78;5066503;28;20217;-57
2023/05/30 10:01:39;;;;;;;1999.90;999.90;;;;;;;27.43;53.06;95571.00;5066783;28;20197;-58
2023/05/30 10:04:18;;;;;;;1999.90;999.90;;;;;;;28.01;52.53;95561.53;5050050;28;20206;-57
2023/05/30 10:06:48;;;;;;;1999.90;999.90;;;;;;;28.68;49.91;95569.81;5050019;28;20220;-56
2023/05/30 10:09:14;;;;;;;1999.90;999.90;;;;;;;27.31;53.80;95563.84;5049795;28;20218;-57
2023/05/30 10:11:42;;;;;;;1999.90;999.90;;;;;;;28.21;50.30;95558.44;5066599;28;20209;-57
2023/05/30 10:14:09;;;;;;;1999.90;999.90;;;;;;;28.65;52.33;95554.00;5066390;28;20189;-57
2023/05/30 10:16:46;;;;;;;1999.90;999.90;;;;;;;28.52;48.37;95562.22;5066343;28;20219;-57
2023/05/30 10:19:25;;;;;;;1999.90;999.90;;;;;;;28.57;49.17;95575.47;5066644;28;20202;-58
2023/05/30 10:21:53;;;;;;;1999.90;999.90;;;;;;;28.32;51.58;95554.09;5066513;28;20193;-57
2023/05/30 10:24:20;;;;;;;1999.90;999.90;;;;;;;27.46;54.31;95558.75;5066529;28;20193;-57
2023/05/30 10:26:50;;;;;;;1999.90;999.90;;;;;;;25.91;58.39;95567.03;5065979;28;20209;-57
2023/05/30 10:29:21;;;;;;;1999.90;999.90;;;;;;;26.19;61.78;95551.97;5065859;28;20190;-56
2023/05/30 10:31:49;;;;;;;1999.90;999.90;;;;;;;26.32;62.71;95549.47;5066083;28;20198;-57
2023/05/30 10:34:18;;;;;;;1999.90;999.90;;;;;;;27.97;53.49;95557.50;5065958;28;20190;-57
2023/05/30 10:36:44;;;;;;;1999.90;999.90;;;;;;;27.92;53.39;95556.22;5065850;28;20228;-57
2023/05/30 10:39:27;;;;;;;1999.90;999.90;;;;;;;28.80;49.67;95554.44;5049068;28;20227;-57
2023/05/30 10:42:27;;;;;;;1999.90;999.90;;;;;;;29.05;47.58;95542.03;5049067;28;20170;-58
2023/05/30 10:45:15;;;;;;;1999.90;999.90;;;;;;;29.28;47.37;95551.88;5043846;28;20202;-57
2023/05/30 10:47:59;;;;;;;1999.90;999.90;;;;;;;26.97;53.32;95539.78;5065495;28;20268;-57
2023/05/30 10:50:31;;;;;;;1999.90;999.90;;;;;;;25.72;54.00;95538.69;5065514;28;20265;-57